createdAt,value
2022-09-14T00:04:45.098Z,18.14
2022-09-14T00:09:52.636Z,18.00
2022-09-14T00:15:20.965Z,17.95
2022-09-14T00:20:22.702Z,17.96
2022-09-14T00:25:27.648Z,17.97
2022-09-14T00:30:29.445Z,17.96
2022-09-14T00:35:31.133Z,17.96
2022-09-14T00:40:32.887Z,17.98
2022-09-14T00:45:45.117Z,18.00
2022-09-14T00:51:03.134Z,17.96
2022-09-14T00:56:05.029Z,17.84
2022-09-14T01:01:10.539Z,17.52
2022-09-14T01:06:21.315Z,17.39
2022-09-14T01:11:43.219Z,17.37
2022-09-14T01:17:29.600Z,17.31
2022-09-14T01:22:40.207Z,17.15
2022-09-14T01:27:46.664Z,17.18
2022-09-14T01:32:58.071Z,17.15
2022-09-14T01:44:38.659Z,17.05
2022-09-14T01:49:55.662Z,17.07
2022-09-14T01:55:04.326Z,17.04
2022-09-14T02:00:10.943Z,17.00
2022-09-14T02:05:26.668Z,16.96
2022-09-14T02:10:29.330Z,16.95
2022-09-14T02:15:31.136Z,16.93
2022-09-14T02:20:39.300Z,16.91
2022-09-14T02:25:41.199Z,16.95
2022-09-14T02:31:19.882Z,16.84
2022-09-14T02:36:48.720Z,16.82
2022-09-14T02:41:58.553Z,16.73
2022-09-14T02:47:28.296Z,16.57
2022-09-14T02:52:55.160Z,16.52
2022-09-14T02:58:11.716Z,16.45
2022-09-14T03:03:18.264Z,16.51
2022-09-14T03:08:19.793Z,16.57
2022-09-14T03:13:27.103Z,16.64
2022-09-14T03:18:28.619Z,16.67
2022-09-14T03:23:30.429Z,16.68
2022-09-14T03:28:31.989Z,16.69
2022-09-14T03:33:39.496Z,16.64
2022-09-14T03:38:48.760Z,16.63
2022-09-14T03:43:51.705Z,16.70
2022-09-14T03:48:55.892Z,16.61
2022-09-14T03:53:57.473Z,16.57
2022-09-14T03:58:59.017Z,16.39
2022-09-14T04:04:00.679Z,16.32
2022-09-14T04:09:02.588Z,16.29
2022-09-14T04:14:05.284Z,16.34
2022-09-14T04:19:07.221Z,16.41
2022-09-14T04:24:15.560Z,16.54
2022-09-14T04:29:17.808Z,16.62
2022-09-14T04:34:19.333Z,16.67
2022-09-14T04:39:21.094Z,16.72
2022-09-14T04:44:22.620Z,16.78
2022-09-14T04:49:27.182Z,16.84
2022-09-14T04:54:45.137Z,16.88
2022-09-14T04:59:46.654Z,16.86
2022-09-14T05:04:51.214Z,16.87
2022-09-14T05:09:52.727Z,16.90
2022-09-14T05:14:54.337Z,16.93
2022-09-14T05:19:55.877Z,16.98
2022-09-14T05:24:57.403Z,16.99
2022-09-14T05:29:58.923Z,17.04
2022-09-14T05:35:00.543Z,17.07
2022-09-14T05:40:02.269Z,17.08
2022-09-14T05:45:04.481Z,17.12
2022-09-14T05:50:08.439Z,17.19
2022-09-14T05:55:09.966Z,17.15
2022-09-14T06:00:12.108Z,17.17
2022-09-14T06:05:22.255Z,17.20
2022-09-14T06:10:23.855Z,17.19
2022-09-14T06:15:25.491Z,17.19
2022-09-14T06:20:27.089Z,17.27
2022-09-14T06:25:28.665Z,17.36
2022-09-14T06:30:33.192Z,17.32
2022-09-14T06:35:34.739Z,17.36
2022-09-14T06:40:36.454Z,17.49
2022-09-14T06:45:38.020Z,17.64
2022-09-14T06:50:39.540Z,17.78
2022-09-14T06:55:41.419Z,17.86
2022-09-14T07:00:43.184Z,17.80
2022-09-14T07:05:44.724Z,17.86
2022-09-14T07:10:55.898Z,18.14
2022-09-14T07:15:57.805Z,18.30
2022-09-14T07:21:11.287Z,18.62
2022-09-14T07:26:18.530Z,18.90
2022-09-14T07:31:33.301Z,19.28
2022-09-14T07:36:36.536Z,19.61
2022-09-14T07:41:39.620Z,19.74
2022-09-14T07:46:43.320Z,19.75
2022-09-14T07:51:45.811Z,19.95
2022-09-14T07:56:49.295Z,20.18
2022-09-14T08:01:51.184Z,20.57
2022-09-14T08:06:52.812Z,20.93
2022-09-14T08:12:04.401Z,21.41
2022-09-14T08:17:05.926Z,21.48
2022-09-14T08:22:07.437Z,21.66
2022-09-14T08:27:12.227Z,21.99
2022-09-14T08:32:13.967Z,22.06
2022-09-14T08:37:15.470Z,22.34
2022-09-14T08:42:19.305Z,22.64
2022-09-14T08:47:32.270Z,22.86
2022-09-14T08:52:38.544Z,23.13
2022-09-14T08:57:44.021Z,23.72
2022-09-14T09:03:19.686Z,24.03
2022-09-14T09:08:39.814Z,24.31
2022-09-14T09:13:43.005Z,25.03
2022-09-14T09:18:49.062Z,25.44
2022-09-14T09:23:51.001Z,25.67
2022-09-14T09:28:54.839Z,25.98
2022-09-14T09:33:56.433Z,26.17
2022-09-14T09:39:04.284Z,26.33
2022-09-14T09:44:11.142Z,26.51
2022-09-14T09:49:42.512Z,26.42
2022-09-14T09:54:51.040Z,26.27
2022-09-14T10:00:10.819Z,26.22
2022-09-14T10:05:13.701Z,26.29
2022-09-14T10:10:19.308Z,26.35
2022-09-14T10:15:34.944Z,26.30
2022-09-14T10:20:41.308Z,26.36
2022-09-14T10:25:42.968Z,26.40
2022-09-14T10:30:51.108Z,26.51
2022-09-14T10:36:14.767Z,26.69
2022-09-14T10:41:39.204Z,26.96
2022-09-14T10:47:21.787Z,27.05
2022-09-14T10:52:40.408Z,27.22
2022-09-14T10:58:01.961Z,27.42
2022-09-14T11:03:24.545Z,27.56
2022-09-14T11:08:40.799Z,27.62
2022-09-14T11:14:02.204Z,27.75
2022-09-14T11:19:22.812Z,28.11
2022-09-14T11:24:46.365Z,28.66
2022-09-14T11:29:53.810Z,28.82
2022-09-14T11:35:02.195Z,28.70
2022-09-14T11:40:15.045Z,28.25
2022-09-14T11:45:23.691Z,27.86
2022-09-14T11:50:31.562Z,27.63
2022-09-14T11:55:34.028Z,27.17
2022-09-14T12:01:03.678Z,26.67
2022-09-14T12:06:30.751Z,26.13
2022-09-14T12:11:36.074Z,25.68
2022-09-14T12:17:22.803Z,25.17
2022-09-14T12:22:32.783Z,23.79
2022-09-14T12:27:37.950Z,21.59
2022-09-14T12:32:42.730Z,20.09
2022-09-14T12:37:46.735Z,19.21
2022-09-14T12:42:48.284Z,18.58
2022-09-14T12:47:50.987Z,18.27
2022-09-14T12:53:18.214Z,18.32
2022-09-14T12:58:41.923Z,18.30
2022-09-14T13:03:50.826Z,18.27
2022-09-14T13:08:58.833Z,18.31
2022-09-14T13:14:01.821Z,18.34
2022-09-14T13:19:08.996Z,18.43
2022-09-14T13:24:28.153Z,18.51
2022-09-14T13:29:31.110Z,18.63
2022-09-14T13:34:37.063Z,18.66
2022-09-14T13:39:50.668Z,18.74
2022-09-14T13:44:53.023Z,18.88
2022-09-14T13:49:55.365Z,18.92
2022-09-14T13:55:38.656Z,18.90
2022-09-14T14:00:53.902Z,18.79
2022-09-14T14:05:55.743Z,18.87
2022-09-14T14:10:58.380Z,18.88
2022-09-14T14:16:20.405Z,18.82
2022-09-14T14:21:21.983Z,18.85
2022-09-14T14:26:27.440Z,18.97
2022-09-14T14:31:29.111Z,19.03
2022-09-14T14:36:30.765Z,19.23
2022-09-14T14:41:32.340Z,19.28
2022-09-14T14:46:34.187Z,19.21
2022-09-14T14:51:35.723Z,19.18
2022-09-14T14:56:38.485Z,19.04
2022-09-14T15:01:40.017Z,18.94
2022-09-14T15:06:41.750Z,18.85
2022-09-14T15:11:43.496Z,18.85
2022-09-14T15:16:46.238Z,18.92
2022-09-14T15:21:47.821Z,19.22
2022-09-14T15:26:49.369Z,19.43
2022-09-14T15:31:50.973Z,19.66
2022-09-14T15:36:54.033Z,19.98
2022-09-14T15:41:56.290Z,20.21
2022-09-14T15:46:57.896Z,20.09
2022-09-14T15:51:59.416Z,19.98
2022-09-14T15:57:01.333Z,20.21
2022-09-14T16:02:03.938Z,20.43
2022-09-14T16:07:09.781Z,20.52
2022-09-14T16:12:12.704Z,20.49
2022-09-14T16:17:14.327Z,20.75
2022-09-14T16:22:15.929Z,20.76
2022-09-14T16:27:17.503Z,20.66
2022-09-14T16:32:19.054Z,20.52
2022-09-14T16:37:20.819Z,20.35
2022-09-14T16:42:22.352Z,20.23
2022-09-14T16:47:25.668Z,20.16
2022-09-14T16:52:28.577Z,20.07
2022-09-14T16:57:30.088Z,20.01
2022-09-14T17:02:34.053Z,19.90
2022-09-14T17:07:35.632Z,19.80
2022-09-14T17:12:37.172Z,19.72
2022-09-14T17:17:38.805Z,19.67
2022-09-14T17:22:40.314Z,19.59
2022-09-14T17:27:41.873Z,19.51
2022-09-14T17:32:43.405Z,19.49
2022-09-14T17:37:44.975Z,19.44
2022-09-14T17:42:46.504Z,19.40
2022-09-14T17:47:48.033Z,19.32
2022-09-14T17:52:52.581Z,19.15
2022-09-14T17:57:54.150Z,18.93
2022-09-14T18:02:55.745Z,18.71
2022-09-14T18:07:57.744Z,18.53
2022-09-14T18:12:59.312Z,18.37
2022-09-14T18:18:00.906Z,18.24
2022-09-14T18:23:02.411Z,18.09
2022-09-14T18:28:03.920Z,17.97
2022-09-14T18:33:05.551Z,17.89
2022-09-14T18:38:07.690Z,17.82
2022-09-14T18:43:09.215Z,17.78
2022-09-14T18:48:10.853Z,17.72
2022-09-14T18:53:13.128Z,17.70
2022-09-14T18:58:14.651Z,17.74
2022-09-14T19:03:16.163Z,17.67
2022-09-14T19:08:17.683Z,17.56
2022-09-14T19:13:19.209Z,17.47
2022-09-14T19:18:20.751Z,17.40
2022-09-14T19:23:22.256Z,17.37
2022-09-14T19:28:23.786Z,17.35
2022-09-14T19:33:25.695Z,17.29
2022-09-14T19:38:28.765Z,17.24
2022-09-14T19:43:32.240Z,17.22
2022-09-14T19:48:34.735Z,17.23
2022-09-14T19:53:37.177Z,17.25
2022-09-14T19:58:40.967Z,17.24
2022-09-14T20:03:43.705Z,17.20
2022-09-14T20:08:46.831Z,17.25
2022-09-14T20:13:48.533Z,17.32
2022-09-14T20:18:51.619Z,17.38
2022-09-14T20:24:18.265Z,17.42
2022-09-14T20:29:22.709Z,17.44
2022-09-14T20:34:24.771Z,17.45
2022-09-14T20:39:27.310Z,17.50
2022-09-14T20:44:28.850Z,17.55
2022-09-14T20:49:30.377Z,17.54
2022-09-14T20:54:31.983Z,17.47
2022-09-14T20:59:33.711Z,17.45
2022-09-14T21:04:35.678Z,17.52
2022-09-14T21:09:37.197Z,17.59
2022-09-14T21:14:38.800Z,17.66
2022-09-14T21:19:40.396Z,17.71
2022-09-14T21:24:41.915Z,17.72
2022-09-14T21:29:43.416Z,17.73
2022-09-14T21:34:45.302Z,17.73
2022-09-14T21:39:47.676Z,17.74
2022-09-14T21:44:49.278Z,17.77
2022-09-14T21:49:50.809Z,17.81
2022-09-14T21:54:52.355Z,17.77
2022-09-14T21:59:53.881Z,17.74
2022-09-14T22:04:55.397Z,17.73
2022-09-14T22:09:56.943Z,17.73
2022-09-14T22:14:58.456Z,17.74
2022-09-14T22:20:00.683Z,17.73
2022-09-14T22:25:02.241Z,17.76
2022-09-14T22:30:04.005Z,17.79
2022-09-14T22:35:05.805Z,17.77
2022-09-14T22:40:07.807Z,17.76
2022-09-14T22:45:09.852Z,17.72
2022-09-14T22:50:11.413Z,17.59
2022-09-14T22:55:13.845Z,17.42
2022-09-14T23:00:15.652Z,17.27
2022-09-14T23:05:17.440Z,17.17
2022-09-14T23:10:19.052Z,17.09
2022-09-14T23:15:20.692Z,16.97
2022-09-14T23:20:22.331Z,16.94
2022-09-14T23:25:26.422Z,16.96
2022-09-14T23:30:28.151Z,16.97
2022-09-14T23:35:30.079Z,16.95
2022-09-14T23:40:31.645Z,16.92
2022-09-14T23:45:33.226Z,16.88
2022-09-14T23:50:35.025Z,16.83
2022-09-14T23:55:36.774Z,16.80
